sensor_id;sensor_type;location;lat;lon;timestamp;pressure;altitude;pressure_sealevel;temperature;humidity
21779;BME280;11050;52.222;20.916;2024-01-11T00:00:33;101018.78;;;-5.23;100.00
21779;BME280;11050;52.222;20.916;2024-01-11T00:02:58;101002.28;;;-5.28;100.00
21779;BME280;11050;52.222;20.916;2024-01-11T00:05:24;100998.34;;;-5.24;100.00
21779;BME280;11050;52.222;20.916;2024-01-11T00:07:50;100992.81;;;-5.32;100.00
21779;BME280;11050;52.222;20.916;2024-01-11T00:10:17;100978.41;;;-5.31;100.00
21779;BME280;11050;52.222;20.916;2024-01-11T00:12:42;100980.13;;;-5.30;100.00
21779;BME280;11050;52.222;20.916;2024-01-11T00:15:08;100985.63;;;-5.22;100.00
21779;BME280;11050;52.222;20.916;2024-01-11T00:17:34;100991.69;;;-5.20;100.00
21779;BME280;11050;52.222;20.916;2024-01-11T00:20:01;100992.31;;;-5.17;100.00
21779;BME280;11050;52.222;20.916;2024-01-11T00:22:26;100989.03;;;-5.20;100.00
21779;BME280;11050;52.222;20.916;2024-01-11T00:24:53;100986.53;;;-5.12;100.00
21779;BME280;11050;52.222;20.916;2024-01-11T00:27:18;100982.16;;;-5.13;100.00
21779;BME280;11050;52.222;20.916;2024-01-11T00:29:44;100976.09;;;-5.15;100.00
21779;BME280;11050;52.222;20.916;2024-01-11T00:32:10;100979.63;;;-5.15;100.00
21779;BME280;11050;52.222;20.916;2024-01-11T00:34:36;100982.03;;;-5.12;100.00
21779;BME280;11050;52.222;20.916;2024-01-11T00:37:02;100974.84;;;-5.11;100.00
21779;BME280;11050;52.222;20.916;2024-01-11T00:39:28;100983.28;;;-5.16;100.00
21779;BME280;11050;52.222;20.916;2024-01-11T00:41:55;100989.75;;;-5.09;100.00
21779;BME280;11050;52.222;20.916;2024-01-11T00:44:21;100970.91;;;-5.07;100.00
21779;BME280;11050;52.222;20.916;2024-01-11T00:46:47;100973.44;;;-5.06;100.00
21779;BME280;11050;52.222;20.916;2024-01-11T00:49:12;100979.63;;;-5.05;100.00
21779;BME280;11050;52.222;20.916;2024-01-11T00:51:38;101000.78;;;-5.02;100.00
21779;BME280;11050;52.222;20.916;2024-01-11T00:54:04;101011.22;;;-4.99;100.00
21779;BME280;11050;52.222;20.916;2024-01-11T00:56:30;101006.88;;;-5.00;100.00
21779;BME280;11050;52.222;20.916;2024-01-11T00:58:55;100999.41;;;-4.97;100.00
21779;BME280;11050;52.222;20.916;2024-01-11T01:01:21;100977.41;;;-5.00;100.00
21779;BME280;11050;52.222;20.916;2024-01-11T01:03:47;100978.09;;;-4.98;100.00
21779;BME280;11050;52.222;20.916;2024-01-11T01:06:13;100965.53;;;-5.07;100.00
21779;BME280;11050;52.222;20.916;2024-01-11T01:08:39;100962.16;;;-5.09;100.00
21779;BME280;11050;52.222;20.916;2024-01-11T01:11:04;100963.97;;;-5.10;100.00
21779;BME280;11050;52.222;20.916;2024-01-11T01:13:30;100978.47;;;-5.12;100.00
21779;BME280;11050;52.222;20.916;2024-01-11T01:15:56;100977.38;;;-5.10;100.00
21779;BME280;11050;52.222;20.916;2024-01-11T01:18:22;100965.81;;;-5.01;100.00
21779;BME280;11050;52.222;20.916;2024-01-11T01:20:47;100966.13;;;-4.94;100.00
21779;BME280;11050;52.222;20.916;2024-01-11T01:23:13;100971.50;;;-4.85;100.00
21779;BME280;11050;52.222;20.916;2024-01-11T01:25:39;100969.22;;;-4.89;100.00
21779;BME280;11050;52.222;20.916;2024-01-11T01:28:05;100983.19;;;-4.86;100.00
21779;BME280;11050;52.222;20.916;2024-01-11T01:30:30;100956.25;;;-4.84;100.00
21779;BME280;11050;52.222;20.916;2024-01-11T01:32:56;100970.78;;;-4.87;100.00
21779;BME280;11050;52.222;20.916;2024-01-11T01:35:22;100974.75;;;-4.81;100.00
21779;BME280;11050;52.222;20.916;2024-01-11T01:37:48;100983.22;;;-4.76;100.00
21779;BME280;11050;52.222;20.916;2024-01-11T01:40:13;100970.09;;;-4.79;100.00
21779;BME280;11050;52.222;20.916;2024-01-11T01:42:43;100956.97;;;-4.72;100.00
21779;BME280;11050;52.222;20.916;2024-01-11T01:45:10;100960.50;;;-4.62;100.00
21779;BME280;11050;52.222;20.916;2024-01-11T01:47:40;100963.75;;;-4.59;100.00
21779;BME280;11050;52.222;20.916;2024-01-11T01:50:10;100955.41;;;-4.56;100.00
21779;BME280;11050;52.222;20.916;2024-01-11T01:52:37;100963.34;;;-4.54;100.00
21779;BME280;11050;52.222;20.916;2024-01-11T01:55:06;100958.25;;;-4.48;100.00
21779;BME280;11050;52.222;20.916;2024-01-11T01:57:35;100954.00;;;-4.60;100.00
21779;BME280;11050;52.222;20.916;2024-01-11T02:00:02;100965.00;;;-4.63;100.00
21779;BME280;11050;52.222;20.916;2024-01-11T02:02:31;100954.28;;;-4.63;100.00
21779;BME280;11050;52.222;20.916;2024-01-11T02:05:00;100961.06;;;-4.59;100.00
21779;BME280;11050;52.222;20.916;2024-01-11T02:07:26;100953.44;;;-4.54;100.00
21779;BME280;11050;52.222;20.916;2024-01-11T02:09:53;100953.88;;;-4.49;100.00
21779;BME280;11050;52.222;20.916;2024-01-11T02:12:18;100968.25;;;-4.50;100.00
21779;BME280;11050;52.222;20.916;2024-01-11T02:14:45;100973.22;;;-4.45;100.00
21779;BME280;11050;52.222;20.916;2024-01-11T02:17:11;100939.88;;;-4.33;100.00
21779;BME280;11050;52.222;20.916;2024-01-11T02:19:37;100941.28;;;-4.29;100.00
21779;BME280;11050;52.222;20.916;2024-01-11T02:22:14;100947.09;;;-4.43;100.00
21779;BME280;11050;52.222;20.916;2024-01-11T02:24:41;100954.00;;;-4.41;100.00
21779;BME280;11050;52.222;20.916;2024-01-11T02:27:06;100946.94;;;-4.32;100.00
21779;BME280;11050;52.222;20.916;2024-01-11T02:29:32;100932.81;;;-4.25;100.00
21779;BME280;11050;52.222;20.916;2024-01-11T02:32:01;100944.09;;;-4.21;100.00
21779;BME280;11050;52.222;20.916;2024-01-11T02:34:28;100931.09;;;-4.16;100.00
21779;BME280;11050;52.222;20.916;2024-01-11T02:36:55;100935.56;;;-4.07;100.00
21779;BME280;11050;52.222;20.916;2024-01-11T02:39:23;100929.66;;;-4.11;100.00
21779;BME280;11050;52.222;20.916;2024-01-11T02:41:54;100914.97;;;-4.07;100.00
21779;BME280;11050;52.222;20.916;2024-01-11T02:44:20;100925.00;;;-4.09;100.00
21779;BME280;11050;52.222;20.916;2024-01-11T02:46:46;100922.47;;;-4.20;100.00
21779;BME280;11050;52.222;20.916;2024-01-11T02:49:11;100922.88;;;-4.15;100.00
21779;BME280;11050;52.222;20.916;2024-01-11T02:51:37;100930.81;;;-4.13;100.00
21779;BME280;11050;52.222;20.916;2024-01-11T02:54:03;100927.69;;;-4.18;100.00
21779;BME280;11050;52.222;20.916;2024-01-11T02:56:29;100925.56;;;-4.15;100.00
21779;BME280;11050;52.222;20.916;2024-01-11T02:58:55;100931.38;;;-4.10;100.00
21779;BME280;11050;52.222;20.916;2024-01-11T03:01:20;100944.09;;;-4.12;100.00
21779;BME280;11050;52.222;20.916;2024-01-11T03:03:46;100943.63;;;-4.07;100.00
21779;BME280;11050;52.222;20.916;2024-01-11T03:06:12;100927.97;;;-4.12;100.00
21779;BME280;11050;52.222;20.916;2024-01-11T03:08:38;100916.84;;;-4.17;100.00
21779;BME280;11050;52.222;20.916;2024-01-11T03:11:04;100911.72;;;-4.10;100.00
21779;BME280;11050;52.222;20.916;2024-01-11T03:13:31;100908.81;;;-4.17;100.00
21779;BME280;11050;52.222;20.916;2024-01-11T03:15:56;100901.56;;;-4.16;100.00
21779;BME280;11050;52.222;20.916;2024-01-11T03:18:22;100898.50;;;-4.21;100.00
21779;BME280;11050;52.222;20.916;2024-01-11T03:20:48;100904.97;;;-4.14;100.00
21779;BME280;11050;52.222;20.916;2024-01-11T03:23:14;100895.94;;;-4.13;100.00
21779;BME280;11050;52.222;20.916;2024-01-11T03:25:40;100919.38;;;-4.15;100.00
21779;BME280;11050;52.222;20.916;2024-01-11T03:28:05;100906.38;;;-4.20;100.00
21779;BME280;11050;52.222;20.916;2024-01-11T03:30:31;100885.94;;;-4.21;100.00
21779;BME280;11050;52.222;20.916;2024-01-11T03:32:57;100907.63;;;-4.14;100.00
21779;BME280;11050;52.222;20.916;2024-01-11T03:35:23;100896.75;;;-4.13;100.00
21779;BME280;11050;52.222;20.916;2024-01-11T03:37:48;100866.53;;;-4.15;100.00
21779;BME280;11050;52.222;20.916;2024-01-11T03:40:14;100865.25;;;-4.11;100.00
21779;BME280;11050;52.222;20.916;2024-01-11T03:42:41;100848.91;;;-4.17;100.00
21779;BME280;11050;52.222;20.916;2024-01-11T03:45:08;100834.41;;;-4.24;100.00
21779;BME280;11050;52.222;20.916;2024-01-11T03:47:33;100842.59;;;-4.35;100.00
21779;BME280;11050;52.222;20.916;2024-01-11T03:49:59;100831.72;;;-4.24;100.00
21779;BME280;11050;52.222;20.916;2024-01-11T03:52:25;100829.16;;;-4.26;100.00
21779;BME280;11050;52.222;20.916;2024-01-11T03:54:50;100813.59;;;-4.22;100.00
21779;BME280;11050;52.222;20.916;2024-01-11T03:57:16;100806.56;;;-4.23;100.00
21779;BME280;11050;52.222;20.916;2024-01-11T03:59:43;100816.44;;;-4.24;100.00
21779;BME280;11050;52.222;20.916;2024-01-11T04:02:09;100812.53;;;-4.29;100.00
21779;BME280;11050;52.222;20.916;2024-01-11T04:04:35;100809.84;;;-4.29;100.00
21779;BME280;11050;52.222;20.916;2024-01-11T04:07:00;100815.47;;;-4.23;100.00
21779;BME280;11050;52.222;20.916;2024-01-11T04:09:26;100816.19;;;-4.21;100.00
21779;BME280;11050;52.222;20.916;2024-01-11T04:11:52;100816.44;;;-4.24;100.00
21779;BME280;11050;52.222;20.916;2024-01-11T04:14:18;100813.38;;;-4.29;100.00
21779;BME280;11050;52.222;20.916;2024-01-11T04:16:43;100814.78;;;-4.25;100.00
21779;BME280;11050;52.222;20.916;2024-01-11T04:19:10;100813.06;;;-4.26;100.00
21779;BME280;11050;52.222;20.916;2024-01-11T04:21:36;100815.34;;;-4.31;100.00
21779;BME280;11050;52.222;20.916;2024-01-11T04:24:05;100824.09;;;-4.29;100.00
21779;BME280;11050;52.222;20.916;2024-01-11T04:26:34;100821.97;;;-4.25;100.00
21779;BME280;11050;52.222;20.916;2024-01-11T04:29:00;100825.03;;;-4.20;100.00
21779;BME280;11050;52.222;20.916;2024-01-11T04:31:26;100834.53;;;-4.26;100.00
21779;BME280;11050;52.222;20.916;2024-01-11T04:33:53;100834.25;;;-4.23;100.00
21779;BME280;11050;52.222;20.916;2024-01-11T04:36:18;100832.84;;;-4.27;100.00
21779;BME280;11050;52.222;20.916;2024-01-11T04:38:44;100815.38;;;-4.40;100.00
21779;BME280;11050;52.222;20.916;2024-01-11T04:41:11;100822.41;;;-4.30;100.00
21779;BME280;11050;52.222;20.916;2024-01-11T04:43:42;100832.44;;;-4.32;100.00
21779;BME280;11050;52.222;20.916;2024-01-11T04:46:22;100827.63;;;-4.28;100.00
21779;BME280;11050;52.222;20.916;2024-01-11T04:48:49;100818.00;;;-4.21;100.00
21779;BME280;11050;52.222;20.916;2024-01-11T04:51:17;100814.47;;;-4.22;100.00
21779;BME280;11050;52.222;20.916;2024-01-11T04:53:45;100824.78;;;-4.17;100.00
21779;BME280;11050;52.222;20.916;2024-01-11T04:56:14;100840.56;;;-4.14;100.00
21779;BME280;11050;52.222;20.916;2024-01-11T04:58:43;100836.47;;;-4.18;100.00
21779;BME280;11050;52.222;20.916;2024-01-11T05:01:16;100815.63;;;-4.24;100.00
21779;BME280;11050;52.222;20.916;2024-01-11T05:03:44;100819.97;;;-4.23;100.00
21779;BME280;11050;52.222;20.916;2024-01-11T05:06:18;100821.81;;;-4.24;100.00
21779;BME280;11050;52.222;20.916;2024-01-11T05:08:46;100820.84;;;-4.23;100.00
21779;BME280;11050;52.222;20.916;2024-01-11T05:11:23;100818.84;;;-4.21;100.00
21779;BME280;11050;52.222;20.916;2024-01-11T05:13:52;100802.88;;;-4.22;100.00
21779;BME280;11050;52.222;20.916;2024-01-11T05:16:24;100817.56;;;-4.17;100.00
21779;BME280;11050;52.222;20.916;2024-01-11T05:18:56;100788.19;;;-4.18;100.00
21779;BME280;11050;52.222;20.916;2024-01-11T05:21:22;100796.50;;;-4.12;100.00
21779;BME280;11050;52.222;20.916;2024-01-11T05:23:49;100775.88;;;-4.11;100.00
21779;BME280;11050;52.222;20.916;2024-01-11T05:26:16;100768.66;;;-4.11;100.00
21779;BME280;11050;52.222;20.916;2024-01-11T05:28:42;100772.34;;;-4.12;100.00
21779;BME280;11050;52.222;20.916;2024-01-11T05:31:13;100774.66;;;-4.17;100.00
21779;BME280;11050;52.222;20.916;2024-01-11T05:33:41;100759.03;;;-4.04;100.00
21779;BME280;11050;52.222;20.916;2024-01-11T05:36:07;100763.56;;;-4.04;100.00
21779;BME280;11050;52.222;20.916;2024-01-11T05:38:34;100771.59;;;-4.04;100.00
21779;BME280;11050;52.222;20.916;2024-01-11T05:41:01;100765.22;;;-4.03;100.00
21779;BME280;11050;52.222;20.916;2024-01-11T05:43:27;100779.88;;;-3.98;100.00
21779;BME280;11050;52.222;20.916;2024-01-11T05:45:53;100747.69;;;-3.98;100.00
21779;BME280;11050;52.222;20.916;2024-01-11T05:48:19;100764.59;;;-3.88;100.00
21779;BME280;11050;52.222;20.916;2024-01-11T05:50:45;100745.41;;;-3.93;100.00
21779;BME280;11050;52.222;20.916;2024-01-11T05:53:12;100743.72;;;-3.94;100.00
21779;BME280;11050;52.222;20.916;2024-01-11T05:55:39;100756.44;;;-3.96;100.00
21779;BME280;11050;52.222;20.916;2024-01-11T05:58:05;100743.44;;;-3.91;100.00
21779;BME280;11050;52.222;20.916;2024-01-11T06:00:31;100737.44;;;-3.85;100.00
21779;BME280;11050;52.222;20.916;2024-01-11T06:02:56;100733.31;;;-3.79;100.00
21779;BME280;11050;52.222;20.916;2024-01-11T06:05:22;100725.88;;;-3.85;100.00
21779;BME280;11050;52.222;20.916;2024-01-11T06:07:48;100727.16;;;-3.89;100.00
21779;BME280;11050;52.222;20.916;2024-01-11T06:10:17;100727.94;;;-3.79;100.00
21779;BME280;11050;52.222;20.916;2024-01-11T06:12:43;100718.25;;;-3.90;100.00
21779;BME280;11050;52.222;20.916;2024-01-11T06:15:09;100710.06;;;-3.88;100.00
21779;BME280;11050;52.222;20.916;2024-01-11T06:17:35;100732.00;;;-3.93;100.00
21779;BME280;11050;52.222;20.916;2024-01-11T06:20:01;100723.72;;;-3.81;100.00
21779;BME280;11050;52.222;20.916;2024-01-11T06:22:27;100717.13;;;-3.87;100.00
21779;BME280;11050;52.222;20.916;2024-01-11T06:24:53;100712.44;;;-3.85;100.00
21779;BME280;11050;52.222;20.916;2024-01-11T06:27:19;100723.25;;;-3.77;100.00
21779;BME280;11050;52.222;20.916;2024-01-11T06:29:44;100739.34;;;-3.77;100.00
21779;BME280;11050;52.222;20.916;2024-01-11T06:32:10;100703.63;;;-3.77;100.00
21779;BME280;11050;52.222;20.916;2024-01-11T06:34:36;100703.47;;;-3.76;100.00
21779;BME280;11050;52.222;20.916;2024-01-11T06:37:02;100696.13;;;-3.74;100.00
21779;BME280;11050;52.222;20.916;2024-01-11T06:39:29;100687.03;;;-3.73;100.00
21779;BME280;11050;52.222;20.916;2024-01-11T06:41:55;100695.50;;;-3.68;100.00
21779;BME280;11050;52.222;20.916;2024-01-11T06:44:21;100681.59;;;-3.63;100.00
21779;BME280;11050;52.222;20.916;2024-01-11T06:46:47;100684.75;;;-3.50;100.00
21779;BME280;11050;52.222;20.916;2024-01-11T06:49:13;100693.13;;;-3.53;100.00
21779;BME280;11050;52.222;20.916;2024-01-11T06:51:38;100684.91;;;-3.52;100.00
21779;BME280;11050;52.222;20.916;2024-01-11T06:54:04;100704.47;;;-3.59;100.00
21779;BME280;11050;52.222;20.916;2024-01-11T06:56:30;100699.88;;;-3.49;100.00
21779;BME280;11050;52.222;20.916;2024-01-11T06:58:56;100695.03;;;-3.46;100.00
21779;BME280;11050;52.222;20.916;2024-01-11T07:01:22;100698.41;;;-3.44;100.00
21779;BME280;11050;52.222;20.916;2024-01-11T07:03:48;100686.19;;;-3.38;100.00
21779;BME280;11050;52.222;20.916;2024-01-11T07:06:15;100700.00;;;-3.33;100.00
21779;BME280;11050;52.222;20.916;2024-01-11T07:08:41;100691.25;;;-3.35;100.00
21779;BME280;11050;52.222;20.916;2024-01-11T07:11:07;100684.91;;;-3.34;100.00
21779;BME280;11050;52.222;20.916;2024-01-11T07:13:33;100691.66;;;-3.30;100.00
21779;BME280;11050;52.222;20.916;2024-01-11T07:15:59;100682.56;;;-3.29;100.00
21779;BME280;11050;52.222;20.916;2024-01-11T07:18:26;100681.25;;;-3.25;100.00
21779;BME280;11050;52.222;20.916;2024-01-11T07:20:52;100683.63;;;-3.22;100.00
21779;BME280;11050;52.222;20.916;2024-01-11T07:23:18;100663.47;;;-3.26;100.00
21779;BME280;11050;52.222;20.916;2024-01-11T07:25:44;100674.88;;;-3.24;100.00
21779;BME280;11050;52.222;20.916;2024-01-11T07:28:10;100676.25;;;-3.20;100.00
21779;BME280;11050;52.222;20.916;2024-01-11T07:30:36;100656.28;;;-3.18;100.00
21779;BME280;11050;52.222;20.916;2024-01-11T07:33:02;100681.69;;;-3.12;100.00
21779;BME280;11050;52.222;20.916;2024-01-11T07:35:27;100683.81;;;-2.98;100.00
21779;BME280;11050;52.222;20.916;2024-01-11T07:37:53;100683.66;;;-2.97;100.00
21779;BME280;11050;52.222;20.916;2024-01-11T07:40:19;100680.13;;;-2.97;100.00
21779;BME280;11050;52.222;20.916;2024-01-11T07:42:45;100656.03;;;-3.07;100.00
21779;BME280;11050;52.222;20.916;2024-01-11T07:45:11;100657.06;;;-3.00;100.00
21779;BME280;11050;52.222;20.916;2024-01-11T07:47:38;100662.63;;;-3.01;100.00
21779;BME280;11050;52.222;20.916;2024-01-11T07:50:06;100670.69;;;-3.01;100.00
21779;BME280;11050;52.222;20.916;2024-01-11T07:52:39;100678.59;;;-3.00;100.00
21779;BME280;11050;52.222;20.916;2024-01-11T07:55:09;100671.38;;;-2.99;100.00
21779;BME280;11050;52.222;20.916;2024-01-11T07:57:40;100680.44;;;-3.00;100.00
21779;BME280;11050;52.222;20.916;2024-01-11T08:00:06;100671.59;;;-2.93;100.00
21779;BME280;11050;52.222;20.916;2024-01-11T08:02:33;100678.47;;;-2.90;100.00
21779;BME280;11050;52.222;20.916;2024-01-11T08:04:59;100674.84;;;-2.81;100.00
21779;BME280;11050;52.222;20.916;2024-01-11T08:07:26;100677.69;;;-2.82;100.00
21779;BME280;11050;52.222;20.916;2024-01-11T08:09:52;100675.84;;;-2.82;100.00
21779;BME280;11050;52.222;20.916;2024-01-11T08:12:18;100684.28;;;-2.77;100.00
21779;BME280;11050;52.222;20.916;2024-01-11T08:14:44;100683.97;;;-2.74;100.00
21779;BME280;11050;52.222;20.916;2024-01-11T08:17:12;100684.81;;;-2.73;100.00
21779;BME280;11050;52.222;20.916;2024-01-11T08:19:39;100682.94;;;-2.73;100.00
21779;BME280;11050;52.222;20.916;2024-01-11T08:22:06;100674.94;;;-2.65;100.00
21779;BME280;11050;52.222;20.916;2024-01-11T08:24:32;100683.47;;;-2.69;100.00
21779;BME280;11050;52.222;20.916;2024-01-11T08:26:58;100696.66;;;-2.58;100.00
21779;BME280;11050;52.222;20.916;2024-01-11T08:29:23;100684.91;;;-2.57;100.00
21779;BME280;11050;52.222;20.916;2024-01-11T08:31:50;100699.88;;;-2.55;100.00
21779;BME280;11050;52.222;20.916;2024-01-11T08:34:16;100692.84;;;-2.48;100.00
21779;BME280;11050;52.222;20.916;2024-01-11T08:36:42;100693.19;;;-2.51;100.00
21779;BME280;11050;52.222;20.916;2024-01-11T08:39:08;100686.25;;;-2.53;100.00
21779;BME280;11050;52.222;20.916;2024-01-11T08:41:34;100700.56;;;-2.53;100.00
21779;BME280;11050;52.222;20.916;2024-01-11T08:44:04;100701.91;;;-2.49;100.00
21779;BME280;11050;52.222;20.916;2024-01-11T08:46:33;100710.66;;;-2.47;100.00
21779;BME280;11050;52.222;20.916;2024-01-11T08:49:01;100708.94;;;-2.56;100.00
21779;BME280;11050;52.222;20.916;2024-01-11T08:51:29;100710.13;;;-2.50;100.00
21779;BME280;11050;52.222;20.916;2024-01-11T08:53:55;100701.09;;;-2.49;100.00
21779;BME280;11050;52.222;20.916;2024-01-11T08:56:21;100686.31;;;-2.45;100.00
21779;BME280;11050;52.222;20.916;2024-01-11T08:58:47;100685.97;;;-2.42;100.00
21779;BME280;11050;52.222;20.916;2024-01-11T09:01:16;100681.78;;;-2.37;100.00
21779;BME280;11050;52.222;20.916;2024-01-11T09:03:43;100681.63;;;-2.43;100.00
21779;BME280;11050;52.222;20.916;2024-01-11T09:06:10;100694.09;;;-2.34;100.00
21779;BME280;11050;52.222;20.916;2024-01-11T09:08:36;100682.69;;;-2.28;100.00
21779;BME280;11050;52.222;20.916;2024-01-11T09:11:02;100687.03;;;-2.27;100.00
21779;BME280;11050;52.222;20.916;2024-01-11T09:13:29;100687.09;;;-2.19;100.00
21779;BME280;11050;52.222;20.916;2024-01-11T09:15:55;100673.13;;;-2.15;100.00
21779;BME280;11050;52.222;20.916;2024-01-11T09:18:21;100670.28;;;-2.13;100.00
21779;BME280;11050;52.222;20.916;2024-01-11T09:20:47;100670.13;;;-2.04;100.00
21779;BME280;11050;52.222;20.916;2024-01-11T09:23:14;100666.94;;;-1.99;100.00
21779;BME280;11050;52.222;20.916;2024-01-11T09:25:41;100655.31;;;-2.00;100.00
21779;BME280;11050;52.222;20.916;2024-01-11T09:28:06;100667.16;;;-1.92;100.00
21779;BME280;11050;52.222;20.916;2024-01-11T09:30:33;100644.59;;;-1.92;100.00
21779;BME280;11050;52.222;20.916;2024-01-11T09:32:59;100630.44;;;-1.94;100.00
21779;BME280;11050;52.222;20.916;2024-01-11T09:35:25;100634.81;;;-1.84;100.00
21779;BME280;11050;52.222;20.916;2024-01-11T09:37:51;100639.38;;;-1.69;100.00
21779;BME280;11050;52.222;20.916;2024-01-11T09:40:18;100631.47;;;-1.54;100.00
21779;BME280;11050;52.222;20.916;2024-01-11T09:42:44;100637.22;;;-1.49;100.00
21779;BME280;11050;52.222;20.916;2024-01-11T09:45:14;100624.91;;;-1.52;100.00
21779;BME280;11050;52.222;20.916;2024-01-11T09:47:47;100611.28;;;-1.50;100.00
21779;BME280;11050;52.222;20.916;2024-01-11T09:50:16;100627.78;;;-1.53;100.00
21779;BME280;11050;52.222;20.916;2024-01-11T09:52:50;100619.88;;;-1.55;100.00
21779;BME280;11050;52.222;20.916;2024-01-11T09:55:19;100600.84;;;-1.53;100.00
21779;BME280;11050;52.222;20.916;2024-01-11T09:57:47;100639.91;;;-1.49;100.00
21779;BME280;11050;52.222;20.916;2024-01-11T10:00:17;100624.56;;;-1.49;100.00
21779;BME280;11050;52.222;20.916;2024-01-11T10:02:48;100616.00;;;-1.44;100.00
21779;BME280;11050;52.222;20.916;2024-01-11T10:05:14;100603.19;;;-1.42;100.00
21779;BME280;11050;52.222;20.916;2024-01-11T10:07:41;100589.72;;;-1.58;100.00
21779;BME280;11050;52.222;20.916;2024-01-11T10:10:08;100606.56;;;-1.48;100.00
21779;BME280;11050;52.222;20.916;2024-01-11T10:12:37;100599.31;;;-1.56;100.00
21779;BME280;11050;52.222;20.916;2024-01-11T10:15:08;100589.72;;;-1.50;100.00
21779;BME280;11050;52.222;20.916;2024-01-11T10:17:45;100590.91;;;-1.53;100.00
21779;BME280;11050;52.222;20.916;2024-01-11T10:20:15;100591.91;;;-1.46;100.00
21779;BME280;11050;52.222;20.916;2024-01-11T10:22:41;100591.38;;;-1.33;100.00
21779;BME280;11050;52.222;20.916;2024-01-11T10:25:12;100607.88;;;-1.28;100.00
21779;BME280;11050;52.222;20.916;2024-01-11T10:27:40;100601.66;;;-1.29;100.00
21779;BME280;11050;52.222;20.916;2024-01-11T10:30:11;100612.78;;;-1.32;100.00
21779;BME280;11050;52.222;20.916;2024-01-11T10:32:46;100602.69;;;-1.38;100.00
21779;BME280;11050;52.222;20.916;2024-01-11T10:35:13;100609.25;;;-1.32;100.00
21779;BME280;11050;52.222;20.916;2024-01-11T10:37:39;100618.34;;;-1.25;100.00
21779;BME280;11050;52.222;20.916;2024-01-11T10:40:08;100614.63;;;-1.24;100.00
21779;BME280;11050;52.222;20.916;2024-01-11T10:42:45;100593.72;;;-1.22;100.00
21779;BME280;11050;52.222;20.916;2024-01-11T10:45:18;100598.06;;;-1.13;100.00
21779;BME280;11050;52.222;20.916;2024-01-11T10:47:51;100585.94;;;-1.09;100.00
21779;BME280;11050;52.222;20.916;2024-01-11T10:50:19;100582.75;;;-1.13;100.00
21779;BME280;11050;52.222;20.916;2024-01-11T10:53:09;100593.03;;;-1.08;100.00
21779;BME280;11050;52.222;20.916;2024-01-11T10:55:39;100588.31;;;-1.06;100.00
21779;BME280;11050;52.222;20.916;2024-01-11T10:58:07;100593.66;;;-0.98;100.00
21779;BME280;11050;52.222;20.916;2024-01-11T11:00:35;100586.25;;;-0.96;100.00
21779;BME280;11050;52.222;20.916;2024-01-11T11:03:02;100584.06;;;-0.92;100.00
21779;BME280;11050;52.222;20.916;2024-01-11T11:05:34;100578.66;;;-0.92;100.00
21779;BME280;11050;52.222;20.916;2024-01-11T11:08:04;100570.78;;;-1.02;100.00
21779;BME280;11050;52.222;20.916;2024-01-11T11:10:34;100569.06;;;-1.03;100.00
21779;BME280;11050;52.222;20.916;2024-01-11T11:13:00;100553.94;;;-1.04;100.00
21779;BME280;11050;52.222;20.916;2024-01-11T11:15:29;100552.56;;;-1.00;100.00
21779;BME280;11050;52.222;20.916;2024-01-11T11:17:56;100557.97;;;-1.00;100.00
21779;BME280;11050;52.222;20.916;2024-01-11T11:20:23;100552.56;;;-1.00;100.00
21779;BME280;11050;52.222;20.916;2024-01-11T11:23:06;100550.38;;;-0.97;100.00
21779;BME280;11050;52.222;20.916;2024-01-11T11:25:34;100567.72;;;-0.99;100.00
21779;BME280;11050;52.222;20.916;2024-01-11T11:27:59;100561.28;;;-0.98;100.00
21779;BME280;11050;52.222;20.916;2024-01-11T11:30:39;100560.81;;;-1.02;100.00
21779;BME280;11050;52.222;20.916;2024-01-11T11:33:10;100553.94;;;-1.04;100.00
21779;BME280;11050;52.222;20.916;2024-01-11T11:35:37;100548.84;;;-0.99;100.00
21779;BME280;11050;52.222;20.916;2024-01-11T11:38:05;100528.78;;;-0.97;100.00
21779;BME280;11050;52.222;20.916;2024-01-11T11:40:38;100521.50;;;-0.88;100.00
21779;BME280;11050;52.222;20.916;2024-01-11T11:43:08;100536.97;;;-0.82;100.00
21779;BME280;11050;52.222;20.916;2024-01-11T11:45:35;100514.53;;;-0.82;100.00
21779;BME280;11050;52.222;20.916;2024-01-11T11:51:16;100517.69;;;-0.71;100.00
21779;BME280;11050;52.222;20.916;2024-01-11T11:53:42;100534.19;;;-0.66;100.00
21779;BME280;11050;52.222;20.916;2024-01-11T11:56:10;100494.97;;;-0.76;100.00
21779;BME280;11050;52.222;20.916;2024-01-11T11:58:36;100522.44;;;-0.73;100.00
21779;BME280;11050;52.222;20.916;2024-01-11T12:01:03;100516.53;;;-0.68;100.00
21779;BME280;11050;52.222;20.916;2024-01-11T12:03:40;100536.00;;;-0.58;100.00
21779;BME280;11050;52.222;20.916;2024-01-11T12:06:10;100518.16;;;-0.59;100.00
21779;BME280;11050;52.222;20.916;2024-01-11T12:08:37;100520.31;;;-0.55;100.00
21779;BME280;11050;52.222;20.916;2024-01-11T12:11:04;100506.16;;;-0.57;100.00
21779;BME280;11050;52.222;20.916;2024-01-11T12:13:32;100498.41;;;-0.60;100.00
21779;BME280;11050;52.222;20.916;2024-01-11T12:15:58;100519.97;;;-0.52;100.00
21779;BME280;11050;52.222;20.916;2024-01-11T12:18:23;100505.81;;;-0.54;100.00
21779;BME280;11050;52.222;20.916;2024-01-11T12:20:51;100520.81;;;-0.51;100.00
21779;BME280;11050;52.222;20.916;2024-01-11T12:23:19;100516.41;;;-0.52;100.00
21779;BME280;11050;52.222;20.916;2024-01-11T12:25:45;100503.63;;;-0.58;100.00
21779;BME280;11050;52.222;20.916;2024-01-11T12:28:11;100511.56;;;-0.57;100.00
21779;BME280;11050;52.222;20.916;2024-01-11T12:30:37;100503.41;;;-0.49;100.00
21779;BME280;11050;52.222;20.916;2024-01-11T12:33:04;100492.78;;;-0.50;100.00